createdAt,value
2023-05-11T00:00:46.970Z,41.53
2023-05-11T00:01:49.389Z,41.41
2023-05-11T00:02:51.050Z,41.33
2023-05-11T00:03:52.733Z,41.58
2023-05-11T00:04:55.121Z,41.35
2023-05-11T00:05:56.624Z,41.69
2023-05-11T00:06:58.165Z,41.49
2023-05-11T00:07:59.685Z,41.54
2023-05-11T00:09:01.234Z,41.39
2023-05-11T00:10:02.709Z,41.62
2023-05-11T00:11:07.644Z,41.56
2023-05-11T00:12:09.086Z,41.69
2023-05-11T00:13:10.660Z,41.57
2023-05-11T00:14:12.207Z,41.70
2023-05-11T00:15:13.587Z,41.78
2023-05-11T00:16:15.817Z,41.77
2023-05-11T00:17:18.862Z,41.94
2023-05-11T00:18:20.644Z,42.01
2023-05-11T00:19:22.358Z,41.86
2023-05-11T00:20:23.831Z,42.13
2023-05-11T00:21:25.314Z,41.96
2023-05-11T00:22:26.910Z,42.01
2023-05-11T00:23:28.322Z,41.90
2023-05-11T00:24:30.084Z,42.16
2023-05-11T00:25:31.520Z,42.02
2023-05-11T00:26:33.025Z,42.10
2023-05-11T00:27:34.387Z,42.15
2023-05-11T00:28:35.795Z,42.47
2023-05-11T00:29:37.164Z,42.73
2023-05-11T00:30:40.746Z,42.47
2023-05-11T00:31:42.378Z,42.49
2023-05-11T00:32:44.709Z,42.46
2023-05-11T00:33:47.056Z,42.52
2023-05-11T00:34:48.631Z,42.57
2023-05-11T00:35:50.667Z,42.54
2023-05-11T00:36:52.180Z,42.62
2023-05-11T00:37:53.564Z,42.99
2023-05-11T00:38:55.804Z,42.48
2023-05-11T00:39:57.877Z,42.74
2023-05-11T00:40:59.295Z,42.79
2023-05-11T00:42:00.700Z,42.79
2023-05-11T00:43:02.527Z,42.76
2023-05-11T00:44:04.739Z,42.69
2023-05-11T00:45:06.734Z,42.73
2023-05-11T00:46:08.521Z,42.71
2023-05-11T00:47:10.069Z,42.84
2023-05-11T00:48:11.940Z,43.19
2023-05-11T00:49:16.689Z,43.04
2023-05-11T00:50:18.555Z,43.21
2023-05-11T00:51:23.202Z,43.01
2023-05-11T00:52:24.600Z,43.11
2023-05-11T00:53:26.313Z,42.99
2023-05-11T00:54:28.000Z,43.24
2023-05-11T00:55:29.809Z,43.44
2023-05-11T00:56:31.320Z,42.98
2023-05-11T00:57:35.486Z,43.35
2023-05-11T00:58:37.186Z,43.25
2023-05-11T00:59:39.059Z,43.07
2023-05-11T01:00:40.520Z,43.35
2023-05-11T01:01:42.118Z,43.53
2023-05-11T01:02:43.843Z,43.33
2023-05-11T01:03:46.625Z,43.52
2023-05-11T01:04:48.107Z,43.46
2023-05-11T01:05:56.709Z,43.79
2023-05-11T01:07:25.273Z,43.62
2023-05-11T01:08:45.926Z,43.36
2023-05-11T01:10:03.057Z,43.68
2023-05-11T01:11:17.313Z,43.75
2023-05-11T01:12:27.927Z,43.78
2023-05-11T01:13:44.103Z,43.68
2023-05-11T01:15:08.226Z,43.82
2023-05-11T01:16:19.133Z,43.65
2023-05-11T01:17:46.774Z,43.96
2023-05-11T01:19:00.241Z,44.27
2023-05-11T01:20:06.683Z,44.27
2023-05-11T01:21:11.271Z,44.32
2023-05-11T01:22:33.045Z,44.08
2023-05-11T01:23:59.734Z,44.48
2023-05-11T01:25:19.805Z,44.43
2023-05-11T01:26:36.470Z,44.21
2023-05-11T01:28:12.850Z,44.52
2023-05-11T01:29:40.705Z,44.64
2023-05-11T01:31:36.162Z,44.69
2023-05-11T01:32:41.662Z,45.01
2023-05-11T01:33:53.645Z,44.97
2023-05-11T01:35:03.863Z,44.87
2023-05-11T01:36:09.293Z,44.92
2023-05-11T01:37:14.955Z,45.18
2023-05-11T01:38:19.947Z,44.58
2023-05-11T01:39:30.082Z,44.80
2023-05-11T01:40:33.364Z,45.02
2023-05-11T01:41:38.737Z,45.17
2023-05-11T01:43:01.702Z,45.09
2023-05-11T01:44:07.299Z,44.78
2023-05-11T01:45:11.044Z,45.11
2023-05-11T01:46:15.529Z,45.19
2023-05-11T01:47:18.091Z,45.32
2023-05-11T01:48:25.349Z,45.17
2023-05-11T01:49:28.449Z,44.93
2023-05-11T01:50:31.877Z,45.19
2023-05-11T01:51:36.817Z,45.33
2023-05-11T01:52:40.231Z,44.96
2023-05-11T01:53:44.372Z,45.36
2023-05-11T01:54:49.053Z,45.44
2023-05-11T01:55:52.227Z,45.69
2023-05-11T01:56:55.767Z,45.07
2023-05-11T01:57:59.620Z,45.61
2023-05-11T01:59:02.501Z,45.57
2023-05-11T02:00:05.184Z,45.40
2023-05-11T02:01:17.049Z,45.55
2023-05-11T02:02:19.516Z,45.55
2023-05-11T02:03:22.625Z,45.25
2023-05-11T02:04:25.900Z,45.09
2023-05-11T02:05:30.038Z,45.81
2023-05-11T02:06:34.155Z,45.64
2023-05-11T02:07:37.998Z,45.58
2023-05-11T02:08:40.732Z,45.83
2023-05-11T02:09:43.764Z,45.52
2023-05-11T02:10:47.680Z,45.62
2023-05-11T02:11:51.317Z,45.28
2023-05-11T02:12:54.035Z,45.57
2023-05-11T02:13:58.089Z,45.80
2023-05-11T02:15:02.462Z,45.43
2023-05-11T02:16:06.548Z,45.74
2023-05-11T02:17:08.978Z,45.74
2023-05-11T02:18:14.210Z,45.75
2023-05-11T02:19:17.594Z,45.75
2023-05-11T02:20:19.891Z,45.84
2023-05-11T02:21:22.152Z,45.79
2023-05-11T02:22:25.126Z,46.17
2023-05-11T02:23:27.476Z,45.85
2023-05-11T02:24:30.490Z,46.02
2023-05-11T02:25:32.873Z,45.91
2023-05-11T02:26:34.623Z,46.13
2023-05-11T02:27:36.572Z,45.94
2023-05-11T02:28:38.331Z,45.75
2023-05-11T02:29:39.763Z,46.02
2023-05-11T02:30:46.340Z,45.83
2023-05-11T02:31:55.227Z,45.90
2023-05-11T02:33:01.037Z,46.64
2023-05-11T02:34:18.459Z,46.16
2023-05-11T02:35:27.603Z,46.26
2023-05-11T02:36:32.662Z,46.31
2023-05-11T02:37:39.801Z,46.32
2023-05-11T02:38:44.808Z,46.37
2023-05-11T02:39:52.185Z,46.18
2023-05-11T02:40:58.185Z,46.04
2023-05-11T02:42:08.099Z,46.24
2023-05-11T02:43:12.402Z,46.16
2023-05-11T02:44:20.359Z,46.10
2023-05-11T02:45:23.892Z,46.40
2023-05-11T02:46:30.411Z,46.55
2023-05-11T02:47:39.025Z,46.18
2023-05-11T02:48:48.002Z,46.45
2023-05-11T02:49:53.474Z,46.54
2023-05-11T02:51:00.437Z,46.39
2023-05-11T02:52:07.593Z,46.45
2023-05-11T02:53:17.975Z,46.49
2023-05-11T02:54:22.413Z,46.45
2023-05-11T02:55:26.450Z,46.52
2023-05-11T02:56:28.982Z,46.51
2023-05-11T02:57:30.981Z,46.55
2023-05-11T02:58:35.915Z,46.48
2023-05-11T02:59:51.433Z,46.84
2023-05-11T03:00:53.397Z,46.68
2023-05-11T03:01:55.177Z,46.72
2023-05-11T03:02:57.246Z,46.56
2023-05-11T03:03:58.891Z,46.75
2023-05-11T03:05:02.001Z,46.91
2023-05-11T03:06:04.290Z,46.95
2023-05-11T03:07:07.376Z,46.94
2023-05-11T03:08:09.133Z,46.79
2023-05-11T03:09:11.273Z,47.13
2023-05-11T03:10:17.147Z,46.92
2023-05-11T03:11:20.519Z,46.72
2023-05-11T03:12:22.935Z,46.90
2023-05-11T03:13:26.036Z,47.07
2023-05-11T03:14:31.168Z,46.77
2023-05-11T03:15:33.683Z,46.75
2023-05-11T03:16:37.423Z,47.02
2023-05-11T03:17:40.987Z,46.98
2023-05-11T03:18:43.725Z,46.92
2023-05-11T03:19:45.946Z,47.04
2023-05-11T03:20:49.480Z,47.23
2023-05-11T03:21:51.915Z,47.14
2023-05-11T03:22:55.312Z,47.15
2023-05-11T03:23:57.436Z,47.03
2023-05-11T03:25:02.084Z,47.18
2023-05-11T03:26:06.081Z,47.32
2023-05-11T03:27:08.947Z,47.18
2023-05-11T03:28:13.071Z,47.39
2023-05-11T03:29:17.272Z,47.26
2023-05-11T03:30:19.825Z,47.50
2023-05-11T03:31:22.999Z,47.15
2023-05-11T03:32:24.899Z,47.63
2023-05-11T03:33:26.826Z,47.36
2023-05-11T03:34:28.377Z,47.43
2023-05-11T03:35:32.940Z,47.50
2023-05-11T03:36:35.243Z,47.67
2023-05-11T03:37:37.928Z,47.45
2023-05-11T03:38:40.629Z,47.67
2023-05-11T03:39:47.469Z,47.44
2023-05-11T03:40:51.879Z,47.42
2023-05-11T03:41:54.897Z,47.32
2023-05-11T03:43:01.358Z,47.49
2023-05-11T03:44:06.273Z,47.20
2023-05-11T03:45:12.718Z,47.43
2023-05-11T03:46:18.357Z,47.47
2023-05-11T03:47:21.194Z,47.27
2023-05-11T03:48:22.909Z,47.56
2023-05-11T03:49:25.296Z,47.24
2023-05-11T03:50:26.864Z,47.62
2023-05-11T03:51:28.959Z,47.83
2023-05-11T03:52:31.493Z,47.48
2023-05-11T03:53:33.201Z,47.69
2023-05-11T03:54:35.625Z,47.69
2023-05-11T03:55:37.373Z,47.51
2023-05-11T03:56:39.821Z,47.48
2023-05-11T03:57:43.601Z,47.71
2023-05-11T03:58:45.517Z,47.75
2023-05-11T03:59:47.098Z,47.68
2023-05-11T04:00:50.299Z,47.64
2023-05-11T04:01:53.277Z,47.88
2023-05-11T04:02:55.103Z,47.64
2023-05-11T04:03:57.427Z,47.70
2023-05-11T04:04:59.160Z,47.99
2023-05-11T04:06:00.615Z,47.51
2023-05-11T04:07:02.156Z,47.31
2023-05-11T04:08:05.516Z,47.49
2023-05-11T04:09:07.263Z,47.31
2023-05-11T04:10:09.080Z,47.62
2023-05-11T04:11:10.983Z,47.35
2023-05-11T04:12:12.352Z,47.38
2023-05-11T04:13:13.886Z,47.62
2023-05-11T04:14:16.952Z,47.41
2023-05-11T04:15:18.549Z,47.55
2023-05-11T04:16:20.023Z,47.22
2023-05-11T04:17:21.471Z,47.27
2023-05-11T04:18:22.867Z,47.19
2023-05-11T04:19:24.352Z,47.48
2023-05-11T04:20:25.946Z,47.05
2023-05-11T04:21:27.426Z,47.22
2023-05-11T04:22:28.855Z,47.10
2023-05-11T04:23:30.485Z,46.77
2023-05-11T04:24:33.810Z,46.97
2023-05-11T04:25:36.032Z,47.08
2023-05-11T04:26:37.410Z,46.98
2023-05-11T04:27:39.045Z,47.58
2023-05-11T04:28:40.467Z,46.89
2023-05-11T04:29:42.057Z,47.06
2023-05-11T04:30:43.537Z,46.68
2023-05-11T04:31:45.144Z,46.41
2023-05-11T04:32:46.633Z,46.96
2023-05-11T04:33:48.264Z,46.74
2023-05-11T04:34:50.661Z,46.64
2023-05-11T04:35:58.022Z,46.67
2023-05-11T04:36:59.898Z,46.72
2023-05-11T04:38:02.515Z,46.60
2023-05-11T04:39:04.154Z,46.55
2023-05-11T04:40:06.676Z,46.38
2023-05-11T04:41:14.219Z,46.79
2023-05-11T04:42:16.161Z,46.55
2023-05-11T04:43:19.624Z,46.48
2023-05-11T04:44:21.302Z,46.46
2023-05-11T04:45:23.020Z,46.15
2023-05-11T04:46:24.712Z,46.04
2023-05-11T04:47:26.250Z,46.15
2023-05-11T04:48:28.582Z,45.81
2023-05-11T04:49:30.511Z,45.78
2023-05-11T04:50:32.813Z,46.00
2023-05-11T04:51:34.901Z,45.55
2023-05-11T04:52:36.261Z,45.40
2023-05-11T04:53:37.770Z,45.69
2023-05-11T04:54:39.213Z,45.44
2023-05-11T04:55:40.683Z,45.46
2023-05-11T04:56:42.980Z,45.19
2023-05-11T04:57:44.348Z,45.50
2023-05-11T04:58:45.719Z,45.38
2023-05-11T04:59:47.243Z,45.68
2023-05-11T05:00:48.870Z,45.20
2023-05-11T05:01:50.253Z,45.27
2023-05-11T05:02:51.747Z,45.00
2023-05-11T05:03:53.288Z,45.02
2023-05-11T05:04:55.017Z,44.92
2023-05-11T05:05:56.734Z,45.09
2023-05-11T05:06:58.221Z,44.98
2023-05-11T05:08:00.069Z,44.76
2023-05-11T05:09:01.592Z,44.69
2023-05-11T05:10:06.293Z,44.63
2023-05-11T05:11:07.866Z,44.31
2023-05-11T05:12:10.418Z,44.38
2023-05-11T05:13:11.961Z,44.47
2023-05-11T05:14:13.713Z,44.22
2023-05-11T05:15:15.457Z,44.18
2023-05-11T05:16:17.039Z,44.12
2023-05-11T05:17:18.590Z,43.90
2023-05-11T05:18:20.290Z,43.98
2023-05-11T05:19:22.211Z,43.93
2023-05-11T05:20:25.538Z,43.65
2023-05-11T05:21:27.108Z,43.80
2023-05-11T05:22:31.380Z,43.90
2023-05-11T05:23:32.855Z,43.69
2023-05-11T05:24:35.212Z,43.61
2023-05-11T05:25:37.868Z,43.72
2023-05-11T05:26:40.748Z,43.54
2023-05-11T05:27:43.106Z,43.55
2023-05-11T05:28:50.534Z,43.54
2023-05-11T05:29:53.984Z,43.35
2023-05-11T05:30:55.879Z,43.09
2023-05-11T05:31:59.188Z,43.20
2023-05-11T05:33:01.424Z,43.10
2023-05-11T05:34:03.578Z,43.13
2023-05-11T05:35:05.663Z,43.03
2023-05-11T05:36:07.469Z,42.96
2023-05-11T05:37:09.118Z,42.86
2023-05-11T05:38:10.629Z,42.87
2023-05-11T05:39:12.204Z,42.51
2023-05-11T05:40:14.545Z,42.46
2023-05-11T05:41:22.341Z,42.23
2023-05-11T05:42:23.863Z,42.28
2023-05-11T05:43:25.543Z,42.20
2023-05-11T05:44:26.943Z,41.70
2023-05-11T05:45:29.128Z,41.62
2023-05-11T05:46:31.281Z,41.33
2023-05-11T05:47:32.867Z,41.27
2023-05-11T05:48:35.039Z,41.08
2023-05-11T05:49:36.517Z,40.68
2023-05-11T05:50:39.780Z,40.75
2023-05-11T05:51:41.578Z,40.57
2023-05-11T05:52:43.339Z,40.61
2023-05-11T05:53:45.829Z,40.61
2023-05-11T05:54:47.329Z,40.82
2023-05-11T05:55:48.756Z,40.82
2023-05-11T05:56:51.392Z,40.49
2023-05-11T05:57:52.937Z,40.61
2023-05-11T05:58:55.390Z,40.40
2023-05-11T05:59:57.568Z,40.59
2023-05-11T06:01:00.211Z,40.45
2023-05-11T06:02:01.833Z,40.48
2023-05-11T06:03:03.849Z,40.60
2023-05-11T06:04:05.886Z,40.61
2023-05-11T06:05:08.045Z,40.21
2023-05-11T06:06:09.603Z,40.11
2023-05-11T06:07:11.227Z,40.33
2023-05-11T06:08:12.573Z,40.28
2023-05-11T06:09:14.179Z,40.29
2023-05-11T06:10:17.135Z,40.43
2023-05-11T06:11:19.080Z,40.43
2023-05-11T06:12:20.984Z,40.27
2023-05-11T06:13:23.197Z,40.22
2023-05-11T06:14:25.684Z,40.25
2023-05-11T06:15:27.285Z,40.26
2023-05-11T06:16:32.563Z,40.15
2023-05-11T06:17:34.134Z,40.19
2023-05-11T06:18:35.644Z,40.12
2023-05-11T06:19:39.910Z,40.06
2023-05-11T06:20:41.518Z,40.01
2023-05-11T06:21:44.566Z,39.97
2023-05-11T06:22:46.268Z,40.00
2023-05-11T06:23:47.977Z,39.94
2023-05-11T06:24:50.146Z,40.14
2023-05-11T06:25:52.761Z,40.08
2023-05-11T06:26:54.351Z,39.95
2023-05-11T06:27:56.327Z,40.08
2023-05-11T06:28:58.091Z,40.05
2023-05-11T06:29:59.704Z,39.86
2023-05-11T06:31:03.117Z,39.68
2023-05-11T06:32:06.685Z,39.78
2023-05-11T06:33:08.600Z,39.57
2023-05-11T06:34:10.430Z,40.02
2023-05-11T06:35:13.542Z,39.92
2023-05-11T06:36:14.938Z,39.66
2023-05-11T06:37:20.445Z,39.69
2023-05-11T06:38:23.938Z,39.32
2023-05-11T06:39:25.472Z,39.18
2023-05-11T06:40:27.091Z,39.04
2023-05-11T06:41:28.529Z,39.24
2023-05-11T06:42:30.165Z,39.13
2023-05-11T06:43:40.226Z,39.41
2023-05-11T06:44:53.448Z,39.42
2023-05-11T06:45:55.237Z,39.53
2023-05-11T06:46:56.743Z,39.69
2023-05-11T06:47:58.171Z,39.71
2023-05-11T06:49:00.364Z,38.95
2023-05-11T06:50:01.905Z,39.12
2023-05-11T06:51:03.821Z,39.26
2023-05-11T06:52:05.705Z,39.24
2023-05-11T06:53:07.537Z,39.28
2023-05-11T06:54:09.233Z,39.15
2023-05-11T06:55:13.629Z,39.33
2023-05-11T06:56:15.273Z,39.32
2023-05-11T06:57:16.691Z,39.05
2023-05-11T06:58:19.799Z,38.85
2023-05-11T06:59:21.330Z,38.77
2023-05-11T07:00:23.071Z,38.74
2023-05-11T07:01:24.496Z,38.85
2023-05-11T07:02:26.039Z,38.83
2023-05-11T07:03:27.516Z,38.68
2023-05-11T07:04:29.941Z,39.10
2023-05-11T07:05:31.724Z,38.94
2023-05-11T07:06:33.312Z,39.02
2023-05-11T07:07:34.722Z,38.79
2023-05-11T07:08:36.141Z,38.59
2023-05-11T07:09:38.395Z,38.70
2023-05-11T07:10:41.282Z,38.11
2023-05-11T07:11:42.690Z,38.29
2023-05-11T07:12:44.116Z,38.11
2023-05-11T07:13:45.544Z,38.12
2023-05-11T07:14:46.948Z,38.07
2023-05-11T07:15:49.133Z,38.21
2023-05-11T07:16:52.102Z,38.00
2023-05-11T07:17:53.723Z,37.54
2023-05-11T07:18:55.503Z,37.55
2023-05-11T07:19:57.141Z,37.38
2023-05-11T07:20:58.747Z,37.58
2023-05-11T07:22:01.517Z,37.10
2023-05-11T07:23:02.952Z,37.63
2023-05-11T07:24:04.653Z,37.49
2023-05-11T07:25:09.026Z,37.38
2023-05-11T07:26:10.644Z,37.49
2023-05-11T07:27:12.228Z,37.41
2023-05-11T07:28:13.711Z,37.36
2023-05-11T07:29:15.420Z,37.39
2023-05-11T07:30:18.562Z,37.44
2023-05-11T07:31:20.687Z,37.36
2023-05-11T07:32:22.528Z,37.38
2023-05-11T07:33:24.028Z,37.37
2023-05-11T07:34:25.711Z,37.48
2023-05-11T07:35:27.527Z,37.81
2023-05-11T07:36:29.383Z,37.59
2023-05-11T07:37:30.877Z,37.36
2023-05-11T07:38:32.951Z,37.54
2023-05-11T07:39:34.353Z,37.43
2023-05-11T07:40:35.792Z,37.29
2023-05-11T07:41:37.223Z,37.28
2023-05-11T07:42:38.569Z,37.25
2023-05-11T07:43:40.548Z,36.92
2023-05-11T07:44:41.900Z,36.94
2023-05-11T07:45:43.609Z,37.06
2023-05-11T07:46:45.399Z,36.74
2023-05-11T07:47:47.093Z,37.06
2023-05-11T07:48:48.614Z,36.99
2023-05-11T07:49:50.991Z,36.60
2023-05-11T07:50:52.496Z,36.73
2023-05-11T07:51:54.089Z,36.82
2023-05-11T07:52:56.143Z,36.75
2023-05-11T07:53:57.604Z,36.82
2023-05-11T07:54:59.009Z,36.35
2023-05-11T07:56:00.943Z,36.43
2023-05-11T07:57:03.353Z,35.16
2023-05-11T07:58:04.751Z,35.41
2023-05-11T07:59:06.272Z,35.07
2023-05-11T08:00:08.797Z,35.65
2023-05-11T08:01:16.439Z,35.76
2023-05-11T08:02:18.349Z,35.82
2023-05-11T08:03:20.005Z,35.18
2023-05-11T08:04:21.565Z,35.33
2023-05-11T08:05:22.976Z,35.43
2023-05-11T08:06:24.759Z,35.37
2023-05-11T08:07:26.177Z,35.48
2023-05-11T08:08:29.564Z,35.56
2023-05-11T08:09:31.578Z,35.41
2023-05-11T08:10:33.052Z,35.53
2023-05-11T08:11:34.603Z,35.07
2023-05-11T08:12:36.594Z,34.51
2023-05-11T08:13:38.138Z,34.84
2023-05-11T08:14:39.571Z,34.67
2023-05-11T08:15:40.949Z,34.81
2023-05-11T08:16:42.607Z,34.34
2023-05-11T08:17:45.468Z,34.42
2023-05-11T08:18:47.053Z,34.29
2023-05-11T08:19:48.775Z,34.46
2023-05-11T08:20:50.201Z,34.06
2023-05-11T08:21:51.698Z,33.98
2023-05-11T08:22:53.244Z,33.92
2023-05-11T08:23:54.687Z,33.98
2023-05-11T08:24:56.153Z,33.78
2023-05-11T08:25:57.539Z,33.47
2023-05-11T08:26:59.358Z,33.73
2023-05-11T08:28:01.488Z,33.46
2023-05-11T08:29:04.625Z,33.42
2023-05-11T08:30:07.805Z,33.37
2023-05-11T08:31:11.361Z,33.42
2023-05-11T08:32:13.355Z,33.67
2023-05-11T08:33:33.759Z,33.50
2023-05-11T08:34:36.486Z,33.32
2023-05-11T08:35:39.077Z,31.76
2023-05-11T08:36:40.461Z,32.26
2023-05-11T08:37:41.904Z,31.90
2023-05-11T08:38:44.102Z,30.06
2023-05-11T08:39:47.261Z,30.97
2023-05-11T08:40:50.761Z,31.19
2023-05-11T08:41:53.581Z,31.37
2023-05-11T08:42:58.644Z,31.46
2023-05-11T08:44:00.863Z,31.10
2023-05-11T08:45:04.145Z,30.57
2023-05-11T08:46:07.848Z,29.91
2023-05-11T08:47:22.849Z,29.79
2023-05-11T08:48:26.413Z,30.00
2023-05-11T08:49:27.951Z,30.02
2023-05-11T08:50:29.651Z,30.15
2023-05-11T08:51:32.126Z,30.09
2023-05-11T08:52:33.990Z,29.70
2023-05-11T08:53:35.447Z,29.82
2023-05-11T08:54:36.842Z,29.87
2023-05-11T08:55:41.045Z,30.06
2023-05-11T08:56:42.712Z,30.10
2023-05-11T08:57:45.873Z,29.45
2023-05-11T08:58:49.491Z,28.88
2023-05-11T08:59:52.553Z,29.10
2023-05-11T09:00:55.034Z,28.72
2023-05-11T09:01:57.571Z,29.28
2023-05-11T09:02:59.933Z,29.18
2023-05-11T09:04:01.734Z,29.30
2023-05-11T09:05:03.667Z,28.66
2023-05-11T09:06:06.952Z,29.14
2023-05-11T09:07:11.008Z,28.94
2023-05-11T09:08:14.130Z,28.94
2023-05-11T09:09:17.507Z,28.39
2023-05-11T09:10:19.311Z,28.66
2023-05-11T09:11:22.160Z,28.62
2023-05-11T09:12:25.549Z,28.97
2023-05-11T09:13:27.292Z,28.56
2023-05-11T09:14:29.105Z,28.51
2023-05-11T09:15:37.024Z,28.50
2023-05-11T09:16:38.943Z,28.43
2023-05-11T09:17:40.506Z,28.65
2023-05-11T09:18:49.189Z,28.23
2023-05-11T09:20:07.032Z,27.97
2023-05-11T09:21:08.541Z,28.06
2023-05-11T09:22:10.221Z,27.90
2023-05-11T09:23:18.742Z,28.01
2023-05-11T09:24:21.190Z,27.40
2023-05-11T09:25:23.403Z,27.84
2023-05-11T09:26:27.788Z,28.09
2023-05-11T09:27:29.370Z,28.13
2023-05-11T09:28:36.019Z,28.04
2023-05-11T09:29:37.718Z,28.04
2023-05-11T09:30:39.073Z,27.85
2023-05-11T09:31:44.426Z,27.07
2023-05-11T09:32:53.754Z,27.54
2023-05-11T09:34:09.795Z,27.10
2023-05-11T09:35:31.040Z,27.25
2023-05-11T09:36:32.446Z,27.10
2023-05-11T09:37:33.930Z,27.25
2023-05-11T09:38:35.296Z,26.81
2023-05-11T09:39:44.779Z,26.99
2023-05-11T09:41:00.411Z,26.72
2023-05-11T09:42:17.982Z,27.11
2023-05-11T09:43:29.933Z,26.59
2023-05-11T09:44:31.767Z,26.94
2023-05-11T09:45:37.324Z,26.52
2023-05-11T09:46:40.670Z,26.99
2023-05-11T09:47:42.184Z,26.94
2023-05-11T09:48:43.707Z,26.74
2023-05-11T09:49:46.988Z,26.88
2023-05-11T09:50:49.658Z,26.74
2023-05-11T09:52:00.184Z,26.57
2023-05-11T09:53:01.987Z,26.29
2023-05-11T09:54:21.444Z,27.03
2023-05-11T09:55:22.918Z,27.33
2023-05-11T09:56:44.080Z,27.37
2023-05-11T09:57:53.732Z,27.31
2023-05-11T09:58:56.841Z,26.97
2023-05-11T09:59:59.809Z,27.12
2023-05-11T10:01:01.180Z,27.09
2023-05-11T10:02:18.715Z,27.30
2023-05-11T10:03:20.287Z,26.96
2023-05-11T10:04:29.012Z,27.00
2023-05-11T10:05:33.580Z,27.02
2023-05-11T10:06:46.905Z,27.04
2023-05-11T10:07:56.425Z,26.32
2023-05-11T10:09:08.269Z,26.44
2023-05-11T10:10:11.113Z,26.63
2023-05-11T10:11:12.835Z,26.89
2023-05-11T10:12:14.414Z,27.17
2023-05-11T10:13:16.088Z,26.56
2023-05-11T10:14:18.846Z,26.20
2023-05-11T10:15:25.825Z,26.35
2023-05-11T10:16:27.475Z,26.60
2023-05-11T10:17:30.025Z,26.63
2023-05-11T10:18:32.040Z,26.88
2023-05-11T10:19:33.896Z,26.55
2023-05-11T10:20:35.378Z,26.35
2023-05-11T10:21:37.826Z,26.35
2023-05-11T10:22:39.583Z,26.36
2023-05-11T10:23:41.810Z,26.42
2023-05-11T10:24:43.775Z,26.49
2023-05-11T10:25:47.326Z,26.22
2023-05-11T10:26:50.231Z,25.58
2023-05-11T10:27:52.825Z,25.85
2023-05-11T10:28:55.056Z,26.14
2023-05-11T10:29:57.729Z,26.35
2023-05-11T10:31:00.178Z,26.53
2023-05-11T10:32:03.646Z,26.83
2023-05-11T10:33:06.169Z,26.67
2023-05-11T10:34:11.304Z,25.86
2023-05-11T10:35:13.208Z,25.87
2023-05-11T10:36:19.345Z,26.50
2023-05-11T10:37:22.026Z,26.28
2023-05-11T10:38:24.507Z,26.22
2023-05-11T10:39:28.606Z,26.06
2023-05-11T10:40:36.463Z,25.83
2023-05-11T10:41:48.338Z,25.93
2023-05-11T10:43:17.908Z,26.17
2023-05-11T10:45:15.918Z,26.06
2023-05-11T10:46:45.357Z,25.65
2023-05-11T10:48:02.387Z,26.07
2023-05-11T10:49:10.200Z,25.27
2023-05-11T10:50:21.219Z,25.84
2023-05-11T10:51:38.112Z,25.76
2023-05-11T10:53:00.382Z,25.91
2023-05-11T10:54:38.149Z,25.20
2023-05-11T10:56:02.810Z,26.04
2023-05-11T10:57:32.863Z,25.91
2023-05-11T10:58:47.211Z,24.80
2023-05-11T11:00:30.242Z,24.32
2023-05-11T11:01:42.343Z,24.07
2023-05-11T11:02:44.805Z,24.59
2023-05-11T11:04:02.428Z,24.82
2023-05-11T11:05:10.147Z,25.02
2023-05-11T11:06:24.043Z,25.19
2023-05-11T11:07:25.715Z,25.58
2023-05-11T11:08:27.944Z,25.19
2023-05-11T11:09:55.455Z,25.72
2023-05-11T11:10:56.937Z,25.75
2023-05-11T11:12:09.128Z,25.42
2023-05-11T11:13:13.251Z,25.71
2023-05-11T11:14:17.266Z,25.45
2023-05-11T11:15:18.978Z,25.08
2023-05-11T11:16:23.008Z,25.48
2023-05-11T11:17:34.563Z,25.51
2023-05-11T11:18:36.317Z,25.27
2023-05-11T11:19:37.856Z,25.27
2023-05-11T11:20:48.017Z,25.16
2023-05-11T11:21:49.613Z,25.05
2023-05-11T11:22:51.202Z,25.03
2023-05-11T11:23:53.016Z,24.51
2023-05-11T11:24:54.485Z,24.83
2023-05-11T11:25:56.373Z,25.02
2023-05-11T11:26:58.486Z,24.90
2023-05-11T11:28:00.310Z,24.84
2023-05-11T11:29:08.662Z,23.99
2023-05-11T11:30:23.437Z,24.90
2023-05-11T11:31:25.871Z,24.41
2023-05-11T11:32:27.966Z,24.54
2023-05-11T11:33:29.441Z,24.75
2023-05-11T11:34:33.236Z,24.47
2023-05-11T11:35:40.751Z,23.65
2023-05-11T11:36:54.743Z,22.72
2023-05-11T11:38:01.644Z,23.06
2023-05-11T11:39:03.405Z,23.23
2023-05-11T11:40:14.656Z,22.68
2023-05-11T11:41:28.801Z,23.38
2023-05-11T11:42:30.258Z,23.41
2023-05-11T11:43:44.548Z,23.67
2023-05-11T11:44:46.301Z,23.61
2023-05-11T11:45:58.838Z,23.60
2023-05-11T11:47:20.250Z,22.38
2023-05-11T11:48:35.358Z,22.73
2023-05-11T11:49:37.965Z,22.95
2023-05-11T11:50:41.165Z,23.17
2023-05-11T11:51:43.325Z,23.12
2023-05-11T11:52:44.689Z,22.95
2023-05-11T11:53:48.856Z,23.17
2023-05-11T11:54:50.666Z,21.45
2023-05-11T11:55:52.137Z,22.23
2023-05-11T11:56:54.230Z,22.56
2023-05-11T11:57:55.731Z,22.89
2023-05-11T11:59:03.270Z,22.25
2023-05-11T12:00:12.064Z,22.39
2023-05-11T12:01:28.908Z,21.62
2023-05-11T12:02:31.485Z,21.57
2023-05-11T12:03:35.834Z,21.78
2023-05-11T12:04:43.895Z,20.66
2023-05-11T12:05:46.579Z,20.70
2023-05-11T12:06:55.693Z,20.95
2023-05-11T12:07:59.282Z,20.32
2023-05-11T12:09:01.106Z,20.79
2023-05-11T12:10:03.464Z,20.72
2023-05-11T12:11:06.000Z,20.62
2023-05-11T12:12:08.745Z,20.81
2023-05-11T12:13:10.726Z,19.93
2023-05-11T12:14:12.321Z,20.33
2023-05-11T12:15:28.786Z,20.23
2023-05-11T12:16:31.563Z,19.61
2023-05-11T12:17:37.329Z,19.78
2023-05-11T12:18:39.763Z,19.70
2023-05-11T12:19:44.862Z,19.27
2023-05-11T12:20:46.373Z,19.42
2023-05-11T12:21:47.808Z,19.24
2023-05-11T12:22:50.061Z,19.20
2023-05-11T12:23:56.662Z,19.73
2023-05-11T12:25:04.271Z,19.49
2023-05-11T12:26:06.580Z,19.22
2023-05-11T12:27:08.117Z,19.52
2023-05-11T12:28:11.889Z,19.21
2023-05-11T12:29:14.787Z,19.14
2023-05-11T12:30:27.694Z,18.65
2023-05-11T12:31:35.281Z,18.68
2023-05-11T12:32:36.737Z,18.76
2023-05-11T12:33:49.180Z,18.58
2023-05-11T12:35:01.989Z,18.63
2023-05-11T12:36:03.682Z,18.58
2023-05-11T12:37:06.349Z,18.08
2023-05-11T12:38:11.124Z,18.02
2023-05-11T12:39:23.537Z,17.76
2023-05-11T12:40:25.376Z,18.24
2023-05-11T12:41:26.784Z,17.71
2023-05-11T12:42:32.221Z,17.36
2023-05-11T12:43:35.256Z,17.22
2023-05-11T12:44:36.906Z,17.87
2023-05-11T12:45:38.564Z,18.04
2023-05-11T12:46:40.164Z,17.75
2023-05-11T12:47:41.684Z,17.36
2023-05-11T12:48:45.782Z,17.01
2023-05-11T12:49:47.294Z,17.25
2023-05-11T12:50:49.083Z,17.15
2023-05-11T12:52:10.425Z,17.03
2023-05-11T12:53:17.262Z,16.75
2023-05-11T12:54:33.532Z,16.49
2023-05-11T12:55:34.886Z,16.23
2023-05-11T12:56:48.449Z,16.43
2023-05-11T12:57:53.901Z,16.02
2023-05-11T12:58:55.317Z,15.47
2023-05-11T13:00:11.007Z,15.30
2023-05-11T13:01:12.509Z,15.39
2023-05-11T13:02:19.828Z,15.84
2023-05-11T13:03:30.057Z,15.83
2023-05-11T13:04:32.411Z,15.40
2023-05-11T13:05:33.970Z,15.52
2023-05-11T13:06:35.791Z,15.40
2023-05-11T13:07:37.385Z,15.53
2023-05-11T13:08:44.355Z,15.37
2023-05-11T13:09:57.189Z,15.81
2023-05-11T13:11:24.850Z,15.71
2023-05-11T13:12:29.596Z,15.36
2023-05-11T13:13:32.630Z,14.56
2023-05-11T13:14:34.169Z,14.67
2023-05-11T13:15:50.406Z,14.46
2023-05-11T13:16:53.466Z,14.05
2023-05-11T13:17:57.629Z,14.43
2023-05-11T13:19:07.647Z,14.43
2023-05-11T13:20:21.300Z,14.20
2023-05-11T13:21:22.808Z,14.37
2023-05-11T13:22:24.235Z,14.61
2023-05-11T13:23:25.670Z,14.53
2023-05-11T13:24:27.686Z,13.80
2023-05-11T13:25:29.257Z,13.40
2023-05-11T13:26:31.013Z,13.96
2023-05-11T13:27:32.480Z,14.00
2023-05-11T13:28:34.082Z,13.63
2023-05-11T13:29:37.204Z,13.56
2023-05-11T13:30:38.755Z,13.51
2023-05-11T13:31:44.911Z,14.20
2023-05-11T13:32:46.783Z,14.44
2023-05-11T13:33:52.060Z,14.25
2023-05-11T13:34:53.599Z,14.20
2023-05-11T13:35:55.123Z,14.61
2023-05-11T13:37:04.895Z,14.56
2023-05-11T13:38:06.732Z,14.71
2023-05-11T13:39:08.521Z,14.57
2023-05-11T13:40:11.515Z,14.19
2023-05-11T13:41:13.563Z,14.13
2023-05-11T13:42:15.684Z,13.60
2023-05-11T13:43:17.359Z,13.21
2023-05-11T13:44:18.869Z,13.47
2023-05-11T13:45:20.653Z,13.73
2023-05-11T13:46:22.223Z,13.54
2023-05-11T13:47:23.894Z,13.45
2023-05-11T13:48:25.667Z,13.56
2023-05-11T13:49:27.099Z,12.65
2023-05-11T13:50:28.670Z,13.43